Time;durP1;ratioP1;P1;durP2;ratioP2;P2;SDS_P1;SDS_P2;PMS_P1;PMS_P2;Temp;Humidity;BMP_temperature;BMP_pressure;BME280_temperature;BME280_humidity;BME280_pressure;Samples;Min_cycle;Max_cycle;Signal;HPM_P1;HPM_P2
2021/12/13 00:01:50;;;;;;;74.43;26.87;;;10.40;99.90;;;;;;4676451;30;21454;-84
2021/12/13 00:04:16;;;;;;;76.87;26.97;;;10.40;99.90;;;;;;4695910;30;20532;-85
2021/12/13 00:06:50;;;;;;;89.30;28.37;;;10.40;99.90;;;;;;4696714;30;20049;-84
2021/12/13 00:09:19;;;;;;;85.27;27.43;;;10.40;99.90;;;;;;4696768;30;20461;-84
2021/12/13 00:11:50;;;;;;;82.43;27.97;;;10.40;99.90;;;;;;4685558;30;20045;-84
2021/12/13 00:14:24;;;;;;;83.83;28.80;;;10.40;99.90;;;;;;4684236;30;20063;-85
2021/12/13 00:17:24;;;;;;;89.77;29.97;;;10.40;99.90;;;;;;4693662;30;20064;-82
2021/12/13 00:20:09;;;;;;;100.20;32.43;;;10.40;99.90;;;;;;4695560;30;20060;-83
2021/12/13 00:22:38;;;;;;;92.50;30.00;;;10.40;99.90;;;;;;4693637;30;20064;-84
2021/12/13 00:25:18;;;;;;;91.47;27.97;;;10.40;99.90;;;;;;4693663;30;20511;-84
2021/12/13 00:27:52;;;;;;;93.90;30.17;;;10.40;99.90;;;;;;4681603;30;20962;-84
2021/12/13 00:30:26;;;;;;;91.00;30.00;;;10.40;99.90;;;;;;4696532;30;20089;-81
2021/12/13 00:32:56;;;;;;;81.23;27.53;;;10.40;99.90;;;;;;4695451;30;20041;-80
2021/12/13 00:35:25;;;;;;;90.10;30.23;;;10.40;99.90;;;;;;4681467;30;20574;-79
2021/12/13 00:37:58;;;;;;;84.97;28.87;;;10.40;99.90;;;;;;4678147;30;20056;-80
2021/12/13 00:40:34;;;;;;;92.33;32.33;;;10.40;99.90;;;;;;4698860;30;20115;-81
2021/12/13 00:43:17;;;;;;;89.37;30.43;;;10.50;99.90;;;;;;4681416;30;20041;-80
2021/12/13 00:45:54;;;;;;;81.77;29.97;;;10.40;99.90;;;;;;4680256;30;20121;-81
2021/12/13 00:48:22;;;;;;;94.43;31.17;;;10.40;99.90;;;;;;4696858;30;20041;-81
2021/12/13 00:51:01;;;;;;;93.43;31.33;;;10.40;99.90;;;;;;4680330;30;20060;-80
2021/12/13 00:53:34;;;;;;;96.27;32.10;;;10.40;99.90;;;;;;4679517;30;20115;-81
2021/12/13 00:56:20;;;;;;;95.53;29.40;;;10.50;99.90;;;;;;4682819;30;20038;-81
2021/12/13 00:58:48;;;;;;;86.10;30.60;;;10.40;99.90;;;;;;4683868;30;20053;-80
2021/12/13 01:01:14;;;;;;;81.57;28.37;;;10.50;99.90;;;;;;4697505;30;20049;-80
2021/12/13 01:03:49;;;;;;;78.03;27.70;;;10.40;99.90;;;;;;4685546;30;20460;-80
2021/12/13 01:06:36;;;;;;;87.90;28.47;;;10.40;99.90;;;;;;4685320;30;20045;-80
2021/12/13 01:09:24;;;;;;;87.57;31.77;;;10.50;99.90;;;;;;4676567;30;20062;-81
2021/12/13 01:11:49;;;;;;;95.03;32.33;;;10.40;99.90;;;;;;4700893;30;20522;-80
2021/12/13 01:14:37;;;;;;;89.70;31.23;;;10.40;99.90;;;;;;4699326;30;20057;-81
2021/12/13 01:17:46;;;;;;;93.87;31.53;;;10.40;99.90;;;;;;4694178;30;20086;-81
2021/12/13 01:20:17;;;;;;;84.13;30.13;;;10.40;99.90;;;;;;4687763;30;20050;-81
2021/12/13 01:22:54;;;;;;;86.03;28.95;;;10.40;99.90;;;;;;4699888;30;20080;-81
2021/12/13 01:28:44;;;;;;;73.23;27.50;;;10.50;99.90;;;;;;4698829;30;20054;-81
2021/12/13 01:31:32;;;;;;;77.77;27.80;;;10.40;99.90;;;;;;4687724;30;20971;-80
2021/12/13 01:34:00;;;;;;;76.00;27.33;;;10.40;99.90;;;;;;4698234;30;20466;-81
2021/12/13 01:36:37;;;;;;;78.83;26.97;;;10.40;99.90;;;;;;4696210;30;20077;-80
2021/12/13 01:39:20;;;;;;;68.60;26.80;;;10.50;99.90;;;;;;4701517;30;20053;-81
2021/12/13 01:42:03;;;;;;;61.73;23.77;;;10.40;99.90;;;;;;4681367;30;20054;-80
2021/12/13 01:44:34;;;;;;;50.17;20.93;;;10.40;99.90;;;;;;4678960;30;20058;-81
2021/12/13 01:47:19;;;;;;;63.23;22.90;;;10.40;99.90;;;;;;4699958;30;20120;-81
2021/12/13 01:49:52;;;;;;;50.57;22.07;;;10.40;99.90;;;;;;4707104;30;20140;-81
2021/12/13 01:52:25;;;;;;;48.37;20.40;;;10.40;99.90;;;;;;4685261;30;20525;-80
2021/12/13 01:54:52;;;;;;;48.47;19.97;;;10.40;99.90;;;;;;4697751;30;20072;-80
2021/12/13 01:57:24;;;;;;;41.03;19.20;;;10.40;99.90;;;;;;4688204;30;20458;-81
2021/12/13 02:00:07;;;;;;;44.27;19.40;;;10.40;99.90;;;;;;4698217;30;20046;-80
2021/12/13 02:02:42;;;;;;;48.00;19.90;;;10.40;99.90;;;;;;4674971;30;20045;-80
2021/12/13 02:05:19;;;;;;;43.07;17.93;;;10.40;99.90;;;;;;4699721;30;20396;-81
2021/12/13 02:07:57;;;;;;;31.50;15.27;;;10.40;99.90;;;;;;4697906;30;20049;-80
2021/12/13 02:10:42;;;;;;;37.90;16.13;;;10.40;99.90;;;;;;4703446;30;20449;-80
2021/12/13 02:13:10;;;;;;;27.73;14.53;;;10.40;99.90;;;;;;4695099;30;20053;-80
2021/12/13 02:18:28;;;;;;;31.30;15.23;;;10.40;99.90;;;;;;4699745;30;20146;-80
2021/12/13 02:21:05;;;;;;;33.10;16.33;;;10.40;99.90;;;;;;4695959;30;20057;-81
2021/12/13 02:23:36;;;;;;;28.70;14.87;;;10.40;99.90;;;;;;4712845;30;20079;-80
2021/12/13 02:26:03;;;;;;;28.10;14.83;;;10.40;99.90;;;;;;4693428;30;20052;-80
2021/12/13 02:28:33;;;;;;;36.37;16.90;;;10.50;99.90;;;;;;4687888;30;20053;-80
2021/12/13 02:31:20;;;;;;;30.60;16.10;;;10.50;99.90;;;;;;4701462;30;20501;-81
2021/12/13 02:33:56;;;;;;;34.70;17.73;;;10.50;99.90;;;;;;4695481;30;20068;-81
2021/12/13 02:36:25;;;;;;;40.50;18.60;;;10.50;99.90;;;;;;4694011;30;20062;-80
2021/12/13 02:38:54;;;;;;;36.90;19.63;;;10.50;99.90;;;;;;4686645;30;20045;-80
2021/12/13 02:41:26;;;;;;;39.57;20.40;;;10.40;99.90;;;;;;4686388;30;20616;-80
2021/12/13 02:44:01;;;;;;;44.45;20.67;;;10.50;99.90;;;;;;4673060;30;20070;-80
2021/12/13 02:46:27;;;;;;;39.23;19.90;;;10.50;99.90;;;;;;4699271;30;20121;-80
2021/12/13 02:48:57;;;;;;;45.50;20.60;;;10.50;99.90;;;;;;4698695;30;20045;-80
2021/12/13 02:51:25;;;;;;;39.17;20.40;;;10.50;99.90;;;;;;4685109;30;20136;-80
2021/12/13 02:54:08;;;;;;;43.17;21.27;;;10.50;99.90;;;;;;4702057;30;20471;-80
2021/12/13 02:56:38;;;;;;;43.23;20.50;;;10.50;99.90;;;;;;4682588;30;20587;-80
2021/12/13 02:59:08;;;;;;;42.87;21.00;;;10.50;99.90;;;;;;4700970;30;20049;-81
2021/12/13 03:01:47;;;;;;;42.53;20.33;;;10.50;99.90;;;;;;4686159;30;20041;-80
2021/12/13 03:04:15;;;;;;;40.93;19.50;;;10.50;99.90;;;;;;4679656;30;20046;-80
2021/12/13 03:07:20;;;;;;;42.90;20.43;;;10.50;99.90;;;;;;4695281;30;20042;-81
2021/12/13 03:09:52;;;;;;;41.33;20.80;;;10.50;99.90;;;;;;4699660;30;20050;-81
2021/12/13 03:12:23;;;;;;;38.45;18.88;;;10.50;99.90;;;;;;4699094;30;20049;-81
2021/12/13 03:15:00;;;;;;;42.30;19.70;;;10.50;99.90;;;;;;4698758;30;20565;-80
2021/12/13 03:17:31;;;;;;;40.50;18.63;;;10.50;99.90;;;;;;4690882;30;20463;-80
2021/12/13 03:20:24;;;;;;;31.57;18.17;;;10.50;99.90;;;;;;4706384;30;20111;-80
2021/12/13 03:23:15;;;;;;;38.87;19.90;;;10.40;99.90;;;;;;4698844;30;20470;-80
2021/12/13 03:26:07;;;;;;;48.72;19.65;;;10.40;99.90;;;;;;4682091;30;20059;-81
2021/12/13 03:29:07;;;;;;;38.42;18.52;;;10.40;99.90;;;;;;4685894;30;20395;-80
2021/12/13 03:31:40;;;;;;;49.70;20.33;;;10.40;99.90;;;;;;4671712;30;20414;-81
2021/12/13 03:34:17;;;;;;;35.87;18.20;;;10.40;99.90;;;;;;4699494;30;20049;-80
2021/12/13 03:36:50;;;;;;;38.00;18.97;;;10.40;99.90;;;;;;4687218;30;20093;-80
2021/12/13 03:39:22;;;;;;;39.27;18.77;;;10.40;99.90;;;;;;4692668;30;20134;-80
2021/12/13 03:41:51;;;;;;;39.70;17.40;;;10.40;99.90;;;;;;4701015;30;20049;-80
2021/12/13 03:44:22;;;;;;;35.40;18.40;;;10.40;99.90;;;;;;4678370;30;20131;-81
2021/12/13 03:46:49;;;;;;;35.03;17.60;;;10.40;99.90;;;;;;4685750;30;20041;-80
2021/12/13 03:49:19;;;;;;;35.57;16.47;;;10.40;99.90;;;;;;4700383;30;21356;-81
2021/12/13 03:51:45;;;;;;;34.07;16.63;;;10.30;99.90;;;;;;4697818;30;20049;-81
2021/12/13 03:54:14;;;;;;;34.97;17.37;;;10.30;99.90;;;;;;4693852;30;20136;-80
2021/12/13 03:56:43;;;;;;;31.30;15.60;;;10.30;99.90;;;;;;4681734;30;20075;-80
2021/12/13 03:59:23;;;;;;;36.27;16.23;;;10.30;99.90;;;;;;4713152;30;20049;-81
2021/12/13 04:02:02;;;;;;;32.70;15.87;;;10.30;99.90;;;;;;4695397;30;20085;-80
2021/12/13 04:04:32;;;;;;;28.47;15.37;;;10.20;99.90;;;;;;4683683;30;20458;-80
2021/12/13 04:07:19;;;;;;;29.87;15.07;;;10.20;99.90;;;;;;4683835;30;20053;-80
2021/12/13 04:09:50;;;;;;;31.33;14.77;;;10.20;99.90;;;;;;4684003;30;20045;-80
2021/12/13 04:12:21;;;;;;;33.13;14.80;;;10.20;99.90;;;;;;4690578;30;20050;-81
2021/12/13 04:14:53;;;;;;;23.97;13.17;;;10.20;99.90;;;;;;4683238;30;20077;-81
2021/12/13 04:17:44;;;;;;;28.83;13.63;;;10.20;99.90;;;;;;4683888;30;20049;-81
2021/12/13 04:20:23;;;;;;;30.50;14.87;;;10.20;99.90;;;;;;4701995;30;20064;-80
2021/12/13 04:22:54;;;;;;;26.00;13.13;;;10.20;99.90;;;;;;4693459;30;20057;-81
2021/12/13 04:25:28;;;;;;;26.50;13.47;;;10.20;99.90;;;;;;4687200;30;20131;-81
2021/12/13 04:28:09;;;;;;;25.37;13.00;;;10.10;99.90;;;;;;4695466;30;20053;-80
2021/12/13 04:30:47;;;;;;;24.13;12.83;;;10.10;99.90;;;;;;4688495;30;20571;-81
2021/12/13 04:33:31;;;;;;;23.17;12.33;;;10.10;99.90;;;;;;4682274;30;20550;-81
2021/12/13 04:36:04;;;;;;;25.23;12.60;;;10.00;99.90;;;;;;4694016;30;20100;-81
2021/12/13 04:38:45;;;;;;;25.20;12.77;;;9.90;99.90;;;;;;4697725;30;20057;-80
2021/12/13 04:41:11;;;;;;;21.60;12.60;;;9.90;99.90;;;;;;4678944;30;20130;-80
2021/12/13 04:43:37;;;;;;;21.13;12.10;;;9.90;99.90;;;;;;4681207;30;20057;-80
2021/12/13 04:46:05;;;;;;;20.67;12.97;;;9.80;99.90;;;;;;4678401;30;20041;-80
2021/12/13 04:48:35;;;;;;;23.40;12.23;;;9.80;99.90;;;;;;4696798;30;20059;-81
2021/12/13 04:51:14;;;;;;;25.57;12.40;;;9.80;99.90;;;;;;4708413;30;20129;-80
2021/12/13 04:53:47;;;;;;;25.47;12.90;;;9.70;99.90;;;;;;4696789;30;20100;-80
2021/12/13 04:56:16;;;;;;;26.47;13.03;;;9.80;99.90;;;;;;4697903;30;20049;-80
2021/12/13 04:58:47;;;;;;;21.53;12.03;;;9.70;99.90;;;;;;4697550;30;20052;-80
2021/12/13 05:01:15;;;;;;;25.13;12.47;;;9.70;99.90;;;;;;4687255;30;20459;-80
2021/12/13 05:03:50;;;;;;;22.97;13.03;;;9.70;99.90;;;;;;4694027;30;20379;-80
2021/12/13 05:06:20;;;;;;;22.70;13.13;;;9.60;99.90;;;;;;4680099;30;20089;-80
2021/12/13 05:08:54;;;;;;;23.47;11.67;;;9.60;99.90;;;;;;4700332;30;20049;-80
2021/12/13 05:11:20;;;;;;;24.33;12.70;;;9.60;99.90;;;;;;4680680;30;20045;-81
2021/12/13 05:13:57;;;;;;;24.67;12.77;;;9.50;99.90;;;;;;4652650;30;20492;-80
2021/12/13 05:16:50;;;;;;;25.83;13.67;;;9.50;99.90;;;;;;4673260;30;20080;-81
2021/12/13 05:19:29;;;;;;;26.43;12.77;;;9.50;99.90;;;;;;4682571;30;20049;-80
2021/12/13 05:21:58;;;;;;;28.77;13.83;;;9.50;99.90;;;;;;4684433;30;20041;-80
2021/12/13 05:24:30;;;;;;;24.33;12.57;;;9.50;99.90;;;;;;4700214;30;20410;-80
2021/12/13 05:27:09;;;;;;;27.20;14.77;;;9.50;99.90;;;;;;4684109;30;20042;-80
2021/12/13 05:29:41;;;;;;;29.83;14.57;;;9.50;99.90;;;;;;4697786;30;20048;-80
2021/12/13 05:32:10;;;;;;;28.35;13.98;;;9.50;99.90;;;;;;4684720;30;20041;-79
2021/12/13 05:34:49;;;;;;;27.10;12.73;;;9.50;99.90;;;;;;4679693;30;20115;-80
2021/12/13 05:37:17;;;;;;;27.20;14.03;;;9.50;99.90;;;;;;4699110;30;20590;-80
2021/12/13 05:40:06;;;;;;;26.27;13.00;;;9.40;99.90;;;;;;4679407;30;20045;-80
2021/12/13 05:42:43;;;;;;;26.03;13.10;;;9.40;99.90;;;;;;4712883;30;20048;-80
2021/12/13 05:45:15;;;;;;;25.00;13.43;;;9.50;99.90;;;;;;4673681;30;20113;-81
2021/12/13 05:47:52;;;;;;;;;;;9.40;99.90;;;;;;4701807;30;20041;-80
2021/12/13 05:50:27;;;;;;;27.60;13.63;;;9.40;99.90;;;;;;4688295;30;19923;-80
2021/12/13 05:53:10;;;;;;;22.97;12.27;;;9.40;99.90;;;;;;4684722;30;20049;-80
2021/12/13 05:56:00;;;;;;;22.43;12.03;;;9.40;99.90;;;;;;4687823;30;20049;-80
2021/12/13 05:58:54;;;;;;;34.67;11.67;;;9.40;99.90;;;;;;4698964;30;20093;-80
2021/12/13 06:01:40;;;;;;;24.63;12.03;;;9.40;99.90;;;;;;4684060;30;20061;-80
2021/12/13 06:04:06;;;;;;;19.70;11.80;;;9.40;99.90;;;;;;4678238;30;20128;-80
2021/12/13 06:06:34;;;;;;;17.73;10.53;;;9.40;99.90;;;;;;4684097;30;20124;-80
2021/12/13 06:09:00;;;;;;;18.00;10.83;;;9.40;99.90;;;;;;4698999;30;20483;-80
2021/12/13 06:11:33;;;;;;;21.27;10.53;;;9.40;99.90;;;;;;4685224;30;20976;-80
2021/12/13 06:14:21;;;;;;;18.07;10.80;;;9.40;99.90;;;;;;4686041;30;20060;-81
2021/12/13 06:17:03;;;;;;;18.03;10.43;;;9.40;99.90;;;;;;4696303;30;20069;-81
2021/12/13 06:19:35;;;;;;;19.90;10.40;;;9.40;99.90;;;;;;4685712;30;20081;-80
2021/12/13 06:22:07;;;;;;;22.77;11.73;;;9.40;99.90;;;;;;4686593;30;20406;-81
2021/12/13 06:24:37;;;;;;;18.90;11.35;;;9.50;99.90;;;;;;4683225;30;20089;-81
2021/12/13 06:27:11;;;;;;;18.83;11.03;;;9.40;99.90;;;;;;4697171;30;20049;-80
2021/12/13 06:29:48;;;;;;;21.97;11.47;;;9.40;99.90;;;;;;4688134;30;20075;-81
2021/12/13 06:32:41;;;;;;;24.13;12.57;;;9.40;99.90;;;;;;4680659;30;20145;-81
2021/12/13 06:35:32;;;;;;;21.77;12.23;;;9.40;99.90;;;;;;4693392;30;20068;-81
2021/12/13 06:38:18;;;;;;;22.13;12.43;;;9.40;99.90;;;;;;4672539;30;20464;-81
2021/12/13 06:40:54;;;;;;;26.40;13.73;;;9.40;99.90;;;;;;4698055;30;20288;-81
2021/12/13 06:43:31;;;;;;;25.57;14.37;;;9.40;99.90;;;;;;4702069;30;20566;-80
2021/12/13 06:45:59;;;;;;;29.57;14.03;;;9.40;99.90;;;;;;4675579;30;20101;-81
2021/12/13 06:48:43;;;;;;;28.77;14.87;;;9.40;99.90;;;;;;4691955;30;20052;-81
2021/12/13 06:51:13;;;;;;;34.97;15.97;;;9.40;99.90;;;;;;4684398;30;20470;-82
2021/12/13 06:53:40;;;;;;;29.90;15.33;;;9.40;99.90;;;;;;4686146;30;20059;-82
2021/12/13 06:56:27;;;;;;;24.53;15.90;;;9.40;99.90;;;;;;4708640;30;20115;-82
2021/12/13 06:58:58;;;;;;;31.20;16.77;;;9.40;99.90;;;;;;4702648;30;20049;-82
2021/12/13 07:01:29;;;;;;;33.80;16.80;;;9.30;99.90;;;;;;4698005;30;20050;-82
2021/12/13 07:03:59;;;;;;;31.75;18.15;;;9.40;99.90;;;;;;4676361;30;20057;-82
2021/12/13 07:06:26;;;;;;;28.77;17.17;;;9.40;99.90;;;;;;4689596;30;20502;-82
2021/12/13 07:09:06;;;;;;;32.03;17.97;;;9.40;99.90;;;;;;4693614;30;20056;-82
2021/12/13 07:11:55;;;;;;;33.20;17.63;;;9.40;99.90;;;;;;4691468;30;20117;-82
2021/12/13 07:14:37;;;;;;;33.97;17.97;;;9.40;99.90;;;;;;4694322;30;20503;-82
2021/12/13 07:17:14;;;;;;;37.00;19.40;;;9.40;99.90;;;;;;4683458;30;20494;-82
2021/12/13 07:19:42;;;;;;;34.27;18.93;;;9.40;99.90;;;;;;4698250;30;20255;-82
2021/12/13 07:22:09;;;;;;;34.47;19.73;;;9.40;99.90;;;;;;4689077;30;20062;-82
2021/12/13 07:24:43;;;;;;;37.97;19.77;;;9.40;99.90;;;;;;4693669;30;20540;-82
2021/12/13 07:27:29;;;;;;;36.67;19.83;;;9.40;99.90;;;;;;4679240;30;20042;-82
2021/12/13 07:30:16;;;;;;;40.17;22.07;;;9.40;99.90;;;;;;4698952;30;20056;-82
2021/12/13 07:32:57;;;;;;;39.03;21.13;;;9.40;99.90;;;;;;4674458;30;20113;-83
2021/12/13 07:35:44;;;;;;;40.58;22.92;;;9.40;99.90;;;;;;4677899;30;20045;-82
2021/12/13 07:38:19;;;;;;;46.93;23.73;;;9.40;99.90;;;;;;4688127;30;20052;-82
2021/12/13 07:40:59;;;;;;;44.27;23.50;;;9.40;99.90;;;;;;4674331;30;20050;-82
2021/12/13 07:43:32;;;;;;;44.37;23.50;;;9.40;99.90;;;;;;4681040;30;20053;-82
2021/12/13 07:46:12;;;;;;;43.23;22.37;;;9.40;99.90;;;;;;4694695;30;20107;-82
2021/12/13 07:48:41;;;;;;;41.83;22.87;;;9.30;99.90;;;;;;4677697;30;20132;-80
2021/12/13 07:51:19;;;;;;;43.97;23.27;;;9.40;99.90;;;;;;4682294;30;20045;-80
2021/12/13 07:53:57;;;;;;;46.50;23.47;;;9.30;99.90;;;;;;4689907;30;20132;-80
2021/12/13 07:56:32;;;;;;;43.67;22.80;;;9.30;99.90;;;;;;4686873;30;20051;-80
2021/12/13 07:59:00;;;;;;;45.43;23.33;;;9.30;99.90;;;;;;4677334;30;20119;-80
2021/12/13 08:01:30;;;;;;;43.70;23.13;;;9.30;99.90;;;;;;4691172;30;20049;-80
2021/12/13 08:04:09;;;;;;;45.20;24.37;;;9.30;99.90;;;;;;4676934;30;20388;-80
2021/12/13 08:06:58;;;;;;;46.20;24.60;;;9.30;99.90;;;;;;4705736;30;20044;-80
2021/12/13 08:09:27;;;;;;;48.13;24.73;;;9.30;99.90;;;;;;4690560;30;20084;-80
2021/12/13 08:12:26;;;;;;;47.23;24.20;;;9.30;99.90;;;;;;4676439;30;20041;-80
2021/12/13 08:15:06;;;;;;;51.93;24.73;;;9.30;99.90;;;;;;4663321;30;21338;-80
2021/12/13 08:17:41;;;;;;;52.07;26.50;;;9.30;99.90;;;;;;4678033;30;20050;-80
2021/12/13 08:20:10;;;;;;;46.97;25.23;;;9.30;99.90;;;;;;4692193;30;20647;-80
2021/12/13 08:22:45;;;;;;;46.33;25.53;;;9.30;99.90;;;;;;4688432;30;20065;-80
2021/12/13 08:25:20;;;;;;;47.63;25.50;;;9.30;99.90;;;;;;4673840;30;20137;-80
2021/12/13 08:27:53;;;;;;;49.00;24.53;;;9.30;99.90;;;;;;4674443;30;20136;-80
2021/12/13 08:30:35;;;;;;;46.70;25.77;;;9.30;99.90;;;;;;4688109;30;20514;-80
2021/12/13 08:33:09;;;;;;;48.95;25.73;;;9.30;99.90;;;;;;4675220;30;20419;-80
2021/12/13 08:35:53;;;;;;;47.10;26.23;;;9.30;99.90;;;;;;4700796;30;20065;-81
2021/12/13 08:38:32;;;;;;;45.23;25.63;;;9.40;99.90;;;;;;4689268;30;20419;-80
2021/12/13 08:41:04;;;;;;;47.20;25.33;;;9.40;99.90;;;;;;4688813;30;20054;-81
2021/12/13 08:43:51;;;;;;;;;;;9.40;99.90;;;;;;4687489;30;20053;-80
2021/12/13 08:46:32;;;;;;;47.83;25.53;;;9.40;99.90;;;;;;4673167;30;19927;-80
2021/12/13 08:48:58;;;;;;;48.30;25.47;;;9.40;99.90;;;;;;4688557;30;20052;-80
2021/12/13 08:51:28;;;;;;;42.83;24.17;;;9.40;99.90;;;;;;4662595;30;20079;-80
2021/12/13 08:54:06;;;;;;;47.47;25.63;;;9.40;99.90;;;;;;4694971;30;20068;-81
2021/12/13 08:56:42;;;;;;;47.47;26.00;;;9.40;99.90;;;;;;4680199;30;20395;-81
2021/12/13 08:59:23;;;;;;;45.57;25.30;;;9.40;99.90;;;;;;4689836;30;20405;-80
2021/12/13 09:02:00;;;;;;;43.97;24.03;;;9.40;99.90;;;;;;4683056;30;20042;-80
2021/12/13 09:04:34;;;;;;;42.40;23.47;;;9.50;99.90;;;;;;4679569;30;20053;-81
2021/12/13 09:07:04;;;;;;;41.30;22.93;;;9.40;99.90;;;;;;4670062;30;20048;-81
2021/12/13 09:09:30;;;;;;;39.83;23.20;;;9.50;99.90;;;;;;4674402;30;20057;-81
2021/12/13 09:12:00;;;;;;;42.30;23.77;;;9.50;99.90;;;;;;4688195;30;20107;-80
2021/12/13 09:14:35;;;;;;;45.53;24.67;;;9.50;99.90;;;;;;4675866;30;20065;-80
2021/12/13 09:17:21;;;;;;;42.90;24.23;;;9.50;99.90;;;;;;4674631;30;20410;-80
2021/12/13 09:19:47;;;;;;;43.73;23.33;;;9.50;99.90;;;;;;4674162;30;20080;-80
2021/12/13 09:22:31;;;;;;;41.00;23.80;;;9.50;99.90;;;;;;4689309;30;20456;-80
2021/12/13 09:25:10;;;;;;;45.67;24.53;;;9.50;99.90;;;;;;4683233;30;20056;-80
2021/12/13 09:27:45;;;;;;;40.50;21.97;;;9.50;99.90;;;;;;4693762;30;20466;-80
2021/12/13 09:30:23;;;;;;;38.93;22.17;;;9.50;99.90;;;;;;4692521;30;20088;-80
2021/12/13 09:33:28;;;;;;;39.67;22.10;;;9.50;99.90;;;;;;4680246;30;20054;-81
2021/12/13 09:36:01;;;;;;;39.17;21.83;;;9.50;99.90;;;;;;4682797;30;20050;-80
2021/12/13 09:38:33;;;;;;;41.30;23.30;;;9.50;99.90;;;;;;4677494;30;20115;-81
2021/12/13 09:41:03;;;;;;;;;;;9.50;99.90;;;;;;4693347;30;20049;-80
2021/12/13 09:43:45;;;;;;;40.60;22.70;;;9.50;99.90;;;;;;4680537;30;20151;-80
2021/12/13 09:46:16;;;;;;;42.77;22.30;;;9.50;99.90;;;;;;4679222;30;20070;-80
2021/12/13 09:48:46;;;;;;;39.55;21.20;;;9.50;99.90;;;;;;4693704;30;20056;-80
2021/12/13 09:51:22;;;;;;;39.03;21.80;;;9.60;99.90;;;;;;4678265;30;20054;-81
2021/12/13 09:54:03;;;;;;;39.10;22.03;;;9.60;99.90;;;;;;4694432;30;20057;-80
2021/12/13 09:56:36;;;;;;;36.07;22.20;;;9.70;99.90;;;;;;4677002;30;20613;-81
2021/12/13 09:59:17;;;;;;;37.23;21.33;;;9.70;99.90;;;;;;4695796;30;20062;-81
2021/12/13 10:01:44;;;;;;;36.33;20.80;;;9.70;99.90;;;;;;4696328;30;20037;-81
2021/12/13 10:04:18;;;;;;;36.23;20.57;;;9.70;99.90;;;;;;4678857;30;20096;-81
2021/12/13 10:06:51;;;;;;;38.00;20.80;;;9.70;99.90;;;;;;4691069;30;20050;-81
2021/12/13 10:09:31;;;;;;;36.57;20.67;;;9.70;99.90;;;;;;4679364;30;20145;-81
2021/12/13 10:12:09;;;;;;;36.73;21.27;;;9.70;99.90;;;;;;4692653;30;20095;-80
2021/12/13 10:14:42;;;;;;;34.83;19.03;;;9.70;99.90;;;;;;4679416;30;20067;-81
2021/12/13 10:17:10;;;;;;;37.03;20.97;;;9.80;99.90;;;;;;4678031;30;20578;-81
2021/12/13 10:19:44;;;;;;;34.53;19.20;;;9.80;99.90;;;;;;4693384;30;20069;-81
2021/12/13 10:22:12;;;;;;;36.77;19.77;;;9.80;99.90;;;;;;4692720;30;20061;-80
2021/12/13 10:24:45;;;;;;;34.87;19.43;;;9.80;99.90;;;;;;4691437;30;20058;-81
2021/12/13 10:27:14;;;;;;;36.37;20.73;;;9.80;99.90;;;;;;4675423;30;20446;-80
2021/12/13 10:29:46;;;;;;;32.77;20.07;;;9.80;99.90;;;;;;4692073;30;20096;-81
2021/12/13 10:32:14;;;;;;;;;;;9.90;99.90;;;;;;4677718;30;20049;-81
2021/12/13 10:34:47;;;;;;;35.20;19.30;;;9.80;99.90;;;;;;4673093;30;19977;-81
2021/12/13 10:37:18;;;;;;;33.47;19.37;;;9.90;99.90;;;;;;4692158;30;20145;-80
2021/12/13 10:39:49;;;;;;;30.10;18.67;;;9.90;99.90;;;;;;4679196;30;20131;-81
2021/12/13 10:42:21;;;;;;;35.42;19.70;;;9.90;99.90;;;;;;4678009;30;20894;-80
2021/12/13 10:44:47;;;;;;;;;;;9.90;99.90;;;;;;4692701;30;20127;-80
2021/12/13 10:47:26;;;;;;;31.00;17.50;;;9.80;99.90;;;;;;4692166;30;19934;-80
2021/12/13 10:49:54;;;;;;;30.57;16.00;;;9.90;99.90;;;;;;4675992;30;20049;-80
2021/12/13 10:52:34;;;;;;;33.00;17.77;;;9.90;99.90;;;;;;4694943;30;20433;-81
2021/12/13 10:55:08;;;;;;;27.83;17.03;;;9.90;99.90;;;;;;4679061;30;20448;-81
2021/12/13 10:57:43;;;;;;;30.07;17.67;;;9.90;99.90;;;;;;4692188;30;20061;-82
2021/12/13 11:00:12;;;;;;;31.67;18.20;;;9.90;99.90;;;;;;4680097;30;20068;-80
2021/12/13 11:02:39;;;;;;;30.53;18.07;;;10.00;99.90;;;;;;4694961;30;20084;-81
2021/12/13 11:05:15;;;;;;;32.17;17.73;;;10.00;99.90;;;;;;4694295;30;20050;-80
2021/12/13 11:07:42;;;;;;;31.80;17.60;;;10.00;99.90;;;;;;4692087;30;20041;-80
2021/12/13 11:10:12;;;;;;;29.93;17.40;;;10.00;99.90;;;;;;4679382;30;20053;-80
2021/12/13 11:12:42;;;;;;;33.53;17.70;;;10.00;99.90;;;;;;4678200;30;20045;-80
2021/12/13 11:15:13;;;;;;;32.80;17.87;;;10.10;99.90;;;;;;4693551;30;20127;-80
2021/12/13 11:17:40;;;;;;;28.20;17.67;;;10.10;99.90;;;;;;4678651;30;20076;-80
2021/12/13 11:20:12;;;;;;;30.40;17.30;;;10.10;99.90;;;;;;4691646;30;20064;-80
2021/12/13 11:22:38;;;;;;;29.30;16.70;;;10.10;99.90;;;;;;4676162;30;20064;-80
2021/12/13 11:25:11;;;;;;;27.40;16.40;;;10.10;99.90;;;;;;4675101;30;20077;-81
2021/12/13 11:27:37;;;;;;;33.97;18.27;;;10.10;99.90;;;;;;4678418;30;20093;-81
2021/12/13 11:30:15;;;;;;;27.20;16.57;;;10.10;99.90;;;;;;4677287;30;20115;-81
2021/12/13 11:32:59;;;;;;;29.07;17.77;;;10.20;99.90;;;;;;4676009;30;20491;-81
2021/12/13 11:35:49;;;;;;;26.40;16.27;;;10.20;99.90;;;;;;4671203;30;20083;-81
2021/12/13 11:38:44;;;;;;;30.97;16.07;;;10.20;99.90;;;;;;4676564;30;20057;-81
2021/12/13 11:41:49;;;;;;;30.83;17.90;;;10.10;99.90;;;;;;4677858;30;20068;-81
2021/12/13 11:44:43;;;;;;;31.40;16.63;;;10.10;99.90;;;;;;4677406;30;20145;-81
2021/12/13 11:47:29;;;;;;;28.57;15.97;;;10.10;99.90;;;;;;4690098;30;20049;-81
2021/12/13 11:50:27;;;;;;;26.83;15.63;;;10.10;99.90;;;;;;4679238;30;20038;-82
2021/12/13 11:53:24;;;;;;;26.53;15.80;;;10.10;99.90;;;;;;4677412;30;20533;-82
2021/12/13 11:55:59;;;;;;;25.13;14.70;;;10.20;99.90;;;;;;4682688;30;20119;-82
2021/12/13 11:58:58;;;;;;;26.67;15.60;;;10.20;99.90;;;;;;4682612;30;20054;-81
2021/12/13 12:02:06;;;;;;;27.00;14.87;;;10.20;99.90;;;;;;4681323;30;20515;-81
2021/12/13 12:05:06;;;;;;;29.23;15.60;;;10.20;99.90;;;;;;4683054;30;20065;-81
2021/12/13 12:07:50;;;;;;;29.07;15.77;;;10.20;99.90;;;;;;4696469;30;20080;-81
2021/12/13 12:10:53;;;;;;;26.13;14.67;;;10.30;99.90;;;;;;4679386;30;20053;-82
2021/12/13 12:14:05;;;;;;;29.83;15.50;;;10.30;99.90;;;;;;4678624;30;20061;-81
2021/12/13 12:16:36;;;;;;;24.97;14.73;;;10.30;99.90;;;;;;4657935;30;20240;-81
2021/12/13 12:19:02;;;;;;;26.35;15.23;;;10.30;99.90;;;;;;4680404;30;20083;-81
2021/12/13 12:21:31;;;;;;;24.47;14.43;;;10.30;99.90;;;;;;4692923;30;20060;-81
2021/12/13 12:24:00;;;;;;;25.20;14.97;;;10.30;99.90;;;;;;4677235;30;20199;-81
2021/12/13 12:26:27;;;;;;;28.07;17.10;;;10.30;99.90;;;;;;4679039;30;20049;-82
2021/12/13 12:28:58;;;;;;;26.80;15.43;;;10.30;99.90;;;;;;4677912;30;20037;-82
2021/12/13 12:31:38;;;;;;;25.07;15.20;;;10.30;99.90;;;;;;4677829;30;20050;-81
2021/12/13 12:34:05;;;;;;;26.23;15.67;;;10.30;99.90;;;;;;4678369;30;20212;-82
2021/12/13 12:37:00;;;;;;;28.00;15.03;;;10.30;99.90;;;;;;4692038;30;20119;-82
2021/12/13 12:39:38;;;;;;;26.90;15.23;;;10.20;99.90;;;;;;4694624;30;20052;-81
2021/12/13 12:42:23;;;;;;;27.70;15.07;;;10.20;99.90;;;;;;4676667;30;20065;-81
2021/12/13 12:44:55;;;;;;;27.87;15.27;;;10.30;99.90;;;;;;4691473;30;20069;-81
2021/12/13 12:47:59;;;;;;;27.25;15.65;;;10.30;99.90;;;;;;4679442;30;20486;-81
2021/12/13 12:50:26;;;;;;;25.57;14.57;;;10.30;99.90;;;;;;4654626;30;20064;-81
2021/12/13 12:52:54;;;;;;;26.37;14.97;;;10.30;99.90;;;;;;4692030;30;20048;-81
2021/12/13 12:55:28;;;;;;;25.83;15.33;;;10.30;99.90;;;;;;4693514;30;20058;-81
2021/12/13 12:57:55;;;;;;;26.83;15.00;;;10.30;99.90;;;;;;4694181;30;20436;-81
2021/12/13 13:00:28;;;;;;;24.30;13.17;;;10.30;99.90;;;;;;4682633;30;20041;-82
2021/12/13 13:02:57;;;;;;;28.67;15.17;;;10.30;99.90;;;;;;4679139;30;20888;-82
2021/12/13 13:05:27;;;;;;;26.20;16.13;;;10.30;99.90;;;;;;4679689;30;20053;-82
2021/12/13 13:07:54;;;;;;;23.30;13.90;;;10.40;99.90;;;;;;4681008;30;20084;-82
2021/12/13 13:13:00;;;;;;;26.57;15.03;;;10.40;99.90;;;;;;4696187;30;20125;-81
2021/12/13 13:15:41;;;;;;;27.13;15.30;;;10.50;99.90;;;;;;4681677;30;20149;-82
2021/12/13 13:18:20;;;;;;;27.43;15.03;;;10.50;99.90;;;;;;4683889;30;20056;-82
2021/12/13 13:20:57;;;;;;;29.57;14.90;;;10.50;99.90;;;;;;4698548;30;20080;-82
2021/12/13 13:23:27;;;;;;;25.53;13.63;;;10.50;99.90;;;;;;4686619;30;20046;-82
2021/12/13 13:25:58;;;;;;;22.77;13.73;;;10.50;99.90;;;;;;4699389;30;20071;-82
2021/12/13 13:28:28;;;;;;;26.93;15.07;;;10.50;99.90;;;;;;4699549;30;20046;-81